Main page
METAR-TAF:

METAR-TAF

Airports :

Bom Jesus da Lapa Airport

Bom Jesus da Lapa, Bahia, Brazil

latitude: 13-16S, longitude: 043-25W, elevation: 440 m

Current weather observation

The report was made 3 hours and 15 minutes ago, at 20:00 UTC
Temperature 37°C
Humidity 15%
Pressure 1011 hPa
Visibility 10 km or more
no clouds below 1500 m and no cumulonimbus

METAR: SBLP 202000Z /////KT CAVOK 37/06 Q1011

Time: 20:15 (23:15 UTC)

Forecast

The report was made 8 hours and 15 minutes ago, at 15:00 UTC
Forecast valid from 20 at 18 UTC to 21 at 06 UTC
Wind 6 kt from the Northeast
Visibility 10 km or more
Few clouds at a height of 3000 ft

TAF: SBLP 201500Z 2018/2106 05006KT 9999 FEW030 TX38/2018Z TN25/2105Z RMK PEU

Weather observations and forecasts of more than 4000 airports (METAR and TAF reports).

The available stations are represented by yellow and red dots on the map.

Hover mouse over dot to see the name of the station.

Then click to see weather observations and forecasts.

To change the map : click on the green buttons with a black cross to zoom in, on the green button with a dash to zoom out, or on the green arrows for adjacent maps.


METAR-TAF: